Alto, New Mexico
Current Conditions -  °F | °C
As of 9:15 AM on Saturday 22 Nov 2014 (Local Time) from KSRR Reporting Station
Clear Clear  
Wind Chill: 48°   Ceiling: Unl
Heat Index: 48°   Visibility: 10mi
Dew Point: 21°   Wind: 3mph
Humidity: 34%   Direction: 280°W
Pressure: 30.11"   Gusts: NA
Location:  33.39°N, 105.69°W
Report Text: KSRR 221615Z AUTO 28003KT 10SM CLR 09/M06 A3011 RMK AO2
Loading
Personal Weather Stations






























Interactive Weather Map New forecast layout! Learn more

10-Day Weather Forecast

Advertisements
Track Severe Weather on mobile